Řízení letového provozu České republiky  
Aktualizace dat:  19.01.2021 15:35:27 UTC English version
   METEO Zobrazení stránky:  19.01.2021 15:36:32 UTC  
vysvětlivky
METAR EDDB 191520Z 21011KT 9999 -DZ BKN008 01/01 Q1004 R88/CLRD// NOSIG=
METAR EDDC 191520Z 23011G21KT 200V260 9999 -RA BKN014 OVC032 02/01 Q1006 R04/CLRD// BECMG BKN015=
METAR EDDE 191520Z 22016KT 9999 FEW016 BKN020 03/01 Q1006 R88/290095 TEMPO 22020G30KT=
METAR EDDF 191520Z 19012KT 160V220 9999 FEW009 BKN015 05/02 Q1012 TEMPO BKN014=
METAR EDDM 191520Z 25016KT 9999 -SNRA FEW017 BKN030 02/M02 Q1014 TEMPO 25015G25KT 4000 -SN=
METAR EDDN 191520Z 22007KT 190V250 9999 -SNRA FEW009 BKN017 02/M00 Q1012 R28/290095 NOSIG=
METAR EDDP 191520Z 21017KT 9999 -RA FEW014 BKN022 BKN040 02/01 Q1005 TEMPO 21015G25KT=
METAR EDQM 191520Z 23017KT 2400 -SN BR BKN008 BKN011 M01/M02 Q1008 RESN=
METAR EPBY 191530Z 16006KT 2500 -RA BR SCT007 BKN015 01/00 Q1007 R26/490293=
METAR EPGD 191530Z 14006KT 1300 R29/1900N BR OVC002 M05/M06 Q1006 R11/450195=
METAR EPKK 191530Z VRB02KT 9999 FEW058 01/M02 Q1012 R25/51//95=
METAR EPKT 191530Z 20011KT 9999 SCT012 01/M01 Q1011 R99/510294=
METAR EPLL 191530Z 18005KT 120V220 9000 FEW008 OVC024 01/00 Q1010=
METAR EPPO 191530Z 17007KT 9999 -RASN SCT006 OVC027 01/00 Q1007 R10/29//95=
METAR EPRZ 191530Z 21011KT 8000 OVC020 M04/M07 Q1014 R27/49//91=
METAR EPWA 191530Z 13008KT 4000 BR OVC006 M06/M07 Q1011 R11/49//94 NOSIG=
METAR EPWR 191530Z 20009KT 9999 FEW029 03/M02 Q1008 R29/2///95=
METAR LHBP 191530Z 15004KT CAVOK 01/M03 Q1018 R88/29//95 NOSIG=
METAR LHSM 191515Z AUTO 19007KT 8000 NSC 03/M02 Q1018=
METAR LKBC 191530Z AUTO 22009KT 190V260 2200 -RASN BKN022 OVC030 01/M03 Q1011=
METAR LKCV 191530Z 18006KT 9999 -SN BKN035 OVC041 03/M03 Q1010 NOSIG RMK BLU WHT=
METAR LKKB 191530Z 21017KT 1500 SN BKN015 OVC024 01/M02 Q1009 NOSIG RMK AMB AMB=
METAR LKKU 191500Z 23007KT CAVOK 02/M02 Q1014=
METAR LKKV 191530Z 24008KT 190V280 1500 -SN BR BKN006 BKN013 M01/M01 Q1008 R29/////// RMK REG QNH 1005=
METAR LKLN 191530Z AUTO 22011KT 2000 -SN BKN007 OVC012 M00/M00 Q1011=
METAR LKMT 191530Z 20016KT 9999 FEW026 02/M02 Q1012 R04/29//95 NOSIG RMK REG QNH 1005=
METAR LKNA 191530Z 17010KT CAVOK 01/M04 Q1011 NOSIG RMK BLU BLU=
METAR LKPD 191530Z 21007KT 8000 -RASN BKN037 OVC050 02/M02 Q1010 NOSIG RMK BLU BLU=
METAR LKPJ 191530Z AUTO 18010KT 9999 BKN100 OVC120 02/M02 Q1013=
METAR LKPR 191530Z 21016KT 4500 -SN FEW010 BKN015 OVC045 00/M01 Q1009 TEMPO 2000 SN BKN008 RMK REG QNH 1005=
METAR LKTB 191530Z 16005KT CAVOK 02/M02 Q1013 R27/21//95 NOSIG RMK REG QNH 1005=
SPECI LKVO 191401Z 22014KT 5000 SN OVC031 03/M02 Q1010=
METAR LOWI 191520Z 28006KT 9999 BKN100 M00/M04 Q1017 R08/19//95 NOSIG=
METAR LOWL 191520Z 32004KT 9999 FEW070 BKN080 01/M03 Q1015 R08/19//95 NOSIG=
METAR LOWS 191520Z 13004KT 050V170 9999 FEW050 SCT060 BKN080 02/M04 Q1015 R15/19//95 NOSIG=
METAR LOWW 191520Z 13003KT 080V190 CAVOK 03/M03 Q1015 R88/19//95 NOSIG=
METAR LZIB 191530Z 08003KT 060V140 CAVOK 02/M03 Q1016 R13/1///95 NOSIG=
METAR LZKZ 191530Z 18005KT 1500 BR OVC003 M05/M06 Q1019 TEMPO 0800 FZFG=
METAR LZMC 191400Z 19004KT CAVOK 04/M03 Q1016=
METAR LZPP 191530Z VRB02KT 5000 BR NSC M01/M03 Q1016=
METAR LZSL NIL
METAR LZTT 191530Z VRB01KT 9999 SCT016 M07/M09 Q1013 NOSIG=
METAR LZZI 191530Z 08003KT 5000 BR SCT025 SCT033 OVC090 M03/M05 Q1015=